Time;durP1;ratioP1;P1;durP2;ratioP2;P2;SDS_P1;SDS_P2;PMS_P1;PMS_P2;Temp;Humidity;BMP_temperature;BMP_pressure;BME280_temperature;BME280_humidity;BME280_pressure;Samples;Min_cycle;Max_cycle;Signal;HPM_P1;HPM_P2
2021/04/10 00:01:43;;;;;;;18.45;13.02;;;8.00;83.30;;;;;;4978901;28;20037;-78
2021/04/10 00:04:10;;;;;;;21.35;15.23;;;8.00;84.20;;;;;;4984378;28;20095;-78
2021/04/10 00:06:35;;;;;;;18.75;11.80;;;8.00;84.40;;;;;;4992705;28;20368;-78
2021/04/10 00:09:01;;;;;;;15.15;10.80;;;8.00;83.10;;;;;;4986517;28;20041;-77
2021/04/10 00:11:27;;;;;;;17.23;11.45;;;7.90;83.20;;;;;;4991129;28;20048;-77
2021/04/10 00:13:53;;;;;;;19.65;14.05;;;7.90;82.90;;;;;;4984756;28;20965;-78
2021/04/10 00:16:18;;;;;;;16.17;11.90;;;7.90;83.10;;;;;;4990557;28;20032;-77
2021/04/10 00:18:44;;;;;;;17.17;12.40;;;7.90;84.30;;;;;;4999923;28;20066;-78
2021/04/10 00:21:10;;;;;;;14.75;10.98;;;7.90;84.50;;;;;;4985810;28;20370;-78
2021/04/10 00:23:42;;;;;;;18.15;11.85;;;7.90;84.20;;;;;;4988822;28;20050;-78
2021/04/10 00:26:08;;;;;;;17.23;12.32;;;7.80;83.60;;;;;;5007164;28;20038;-79
2021/04/10 00:28:34;;;;;;;16.20;12.70;;;7.80;83.80;;;;;;4980791;28;20066;-78
2021/04/10 00:31:06;;;;;;;13.10;9.75;;;7.80;84.10;;;;;;4990204;28;20462;-77
2021/04/10 00:33:38;;;;;;;11.63;9.55;;;7.70;83.80;;;;;;4977856;28;20089;-79
2021/04/10 00:36:05;;;;;;;17.80;12.68;;;7.70;83.30;;;;;;4977186;28;20351;-78
2021/04/10 00:38:31;;;;;;;25.10;15.43;;;7.70;83.50;;;;;;4960262;28;20026;-77
2021/04/10 00:40:57;;;;;;;18.52;14.10;;;7.60;83.60;;;;;;4969063;28;20069;-78
2021/04/10 00:43:22;;;;;;;21.52;16.80;;;7.60;83.50;;;;;;4968324;28;20367;-79
2021/04/10 00:45:48;;;;;;;17.55;12.38;;;7.60;83.80;;;;;;4990385;28;20066;-78
2021/04/10 00:48:13;;;;;;;19.60;12.75;;;7.60;83.90;;;;;;5001930;28;20042;-78
2021/04/10 00:50:39;;;;;;;26.75;17.67;;;7.60;83.60;;;;;;4973965;28;20050;-78
2021/04/10 00:53:04;;;;;;;26.95;19.15;;;7.60;83.50;;;;;;4980890;28;20473;-78
2021/04/10 00:55:30;;;;;;;29.88;20.40;;;7.50;84.10;;;;;;4986880;28;20117;-78
2021/04/10 00:57:55;;;;;;;32.78;20.42;;;7.50;84.80;;;;;;4979523;28;21704;-77
2021/04/10 01:00:21;;;;;;;21.20;14.20;;;7.40;85.80;;;;;;4975691;28;20121;-78
2021/04/10 01:02:47;;;;;;;22.23;15.93;;;7.40;85.20;;;;;;5002109;28;20113;-78
2021/04/10 01:05:13;;;;;;;24.92;18.40;;;7.50;84.80;;;;;;4991479;28;20081;-78
2021/04/10 01:07:41;;;;;;;23.52;16.90;;;7.50;84.50;;;;;;4994930;28;20027;-77
2021/04/10 01:10:07;;;;;;;15.27;12.02;;;7.50;84.20;;;;;;4993620;28;20048;-78
2021/04/10 01:12:52;;;;;;;22.42;15.13;;;7.50;84.50;;;;;;4957381;28;20038;-80
2021/04/10 01:15:25;;;;;;;14.43;11.07;;;7.50;84.10;;;;;;4989168;28;20038;-80
2021/04/10 01:18:03;;;;;;;11.68;8.88;;;7.50;84.10;;;;;;4977958;28;20049;-80
2021/04/10 01:20:47;;;;;;;20.50;13.25;;;7.50;84.20;;;;;;4983616;28;20414;-79
2021/04/10 01:23:46;;;;;;;15.60;12.90;;;7.60;84.40;;;;;;4989395;28;20488;-81
2021/04/10 01:26:39;;;;;;;17.08;12.18;;;7.60;84.40;;;;;;4999288;28;20062;-80
2021/04/10 01:29:07;;;;;;;11.18;9.40;;;7.60;84.20;;;;;;4989220;28;20044;-80
2021/04/10 01:31:46;;;;;;;20.42;13.50;;;7.40;84.70;;;;;;4990056;28;20037;-79
2021/04/10 01:34:16;;;;;;;21.20;16.00;;;7.50;84.90;;;;;;4979320;28;20070;-79
2021/04/10 01:36:43;;;;;;;24.05;17.52;;;7.40;85.00;;;;;;4959493;28;20034;-78
2021/04/10 01:39:10;;;;;;;11.68;9.45;;;7.40;85.60;;;;;;4982159;28;20037;-78
2021/04/10 01:41:36;;;;;;;27.13;20.67;;;7.40;85.40;;;;;;4975143;28;20036;-78
2021/04/10 01:44:02;;;;;;;15.00;9.55;;;7.40;85.40;;;;;;4987982;28;20034;-78
2021/04/10 01:46:27;;;;;;;22.77;16.08;;;7.40;85.10;;;;;;4990003;28;20042;-78
2021/04/10 01:48:53;;;;;;;12.05;9.93;;;7.40;85.20;;;;;;4974004;28;20074;-78
2021/04/10 01:51:18;;;;;;;12.13;10.35;;;7.40;85.90;;;;;;5004756;28;20686;-79
2021/04/10 01:53:44;;;;;;;12.50;8.48;;;7.40;85.10;;;;;;4973619;28;20058;-79
2021/04/10 01:56:10;;;;;;;15.05;11.75;;;7.40;85.10;;;;;;4986360;28;20034;-78
2021/04/10 01:58:36;;;;;;;17.20;13.98;;;7.40;84.80;;;;;;4978074;28;20052;-79
2021/04/10 02:01:02;;;;;;;15.63;12.30;;;7.40;84.80;;;;;;4965963;28;20042;-78
2021/04/10 02:03:27;;;;;;;13.00;9.50;;;7.40;84.80;;;;;;4990064;28;20030;-79
2021/04/10 02:05:53;;;;;;;28.67;19.17;;;7.50;85.40;;;;;;4977359;28;20076;-79
2021/04/10 02:08:19;;;;;;;29.15;21.45;;;7.40;85.40;;;;;;4973873;28;20054;-79
2021/04/10 02:10:45;;;;;;;34.08;24.50;;;7.40;85.70;;;;;;4966083;28;20075;-79
2021/04/10 02:13:10;;;;;;;30.48;23.45;;;7.30;86.70;;;;;;4985514;28;20046;-79
2021/04/10 02:15:36;;;;;;;36.78;26.48;;;7.30;87.30;;;;;;4982112;28;20061;-78
2021/04/10 02:18:01;;;;;;;16.10;12.30;;;7.30;87.70;;;;;;4969773;28;20098;-78
2021/04/10 02:20:27;;;;;;;22.40;18.10;;;7.30;87.50;;;;;;4993132;28;20852;-79
2021/04/10 02:22:56;;;;;;;18.23;14.38;;;7.30;86.40;;;;;;4976650;28;20030;-79
2021/04/10 02:25:22;;;;;;;16.85;13.73;;;7.40;86.00;;;;;;4992035;28;20076;-78
2021/04/10 02:27:47;;;;;;;14.60;10.80;;;7.40;85.70;;;;;;4962896;28;20406;-78
2021/04/10 02:30:14;;;;;;;18.17;13.20;;;7.50;86.10;;;;;;4969909;28;20160;-79
2021/04/10 02:32:49;;;;;;;14.35;10.35;;;7.50;86.80;;;;;;4986530;28;20096;-79
2021/04/10 02:35:42;;;;;;;14.43;10.85;;;7.50;86.70;;;;;;4988530;28;20037;-79
2021/04/10 02:38:08;;;;;;;31.02;21.10;;;7.40;86.70;;;;;;4982816;28;20032;-79
2021/04/10 02:40:36;;;;;;;24.55;18.38;;;7.40;86.40;;;;;;4990816;28;20035;-79
2021/04/10 02:43:03;;;;;;;23.30;19.33;;;7.40;85.90;;;;;;4994155;28;20080;-78
2021/04/10 02:45:29;;;;;;;17.33;13.02;;;7.30;85.60;;;;;;4988583;28;20501;-77
2021/04/10 02:47:57;;;;;;;31.08;23.63;;;7.30;86.10;;;;;;4980046;28;20037;-79
2021/04/10 02:50:22;;;;;;;38.42;26.83;;;7.30;85.70;;;;;;4999833;28;20482;-79
2021/04/10 02:52:50;;;;;;;32.30;23.40;;;7.30;86.20;;;;;;4991582;28;20053;-79
2021/04/10 02:55:20;;;;;;;39.15;28.83;;;7.20;86.80;;;;;;4972787;28;20543;-79
2021/04/10 02:57:46;;;;;;;41.85;27.73;;;7.20;87.50;;;;;;4971879;28;20037;-79
2021/04/10 03:00:13;;;;;;;39.65;30.20;;;7.20;88.20;;;;;;4977510;28;20026;-79
2021/04/10 03:02:38;;;;;;;20.52;15.13;;;7.20;88.20;;;;;;4960857;28;20034;-79
2021/04/10 03:05:05;;;;;;;30.38;23.50;;;7.20;88.20;;;;;;4980649;28;20505;-78
2021/04/10 03:07:30;;;;;;;31.70;23.38;;;7.20;88.60;;;;;;4962910;28;20037;-80
2021/04/10 03:09:56;;;;;;;38.38;28.05;;;7.20;88.50;;;;;;4993970;28;20061;-80
2021/04/10 03:12:22;;;;;;;46.63;29.42;;;7.20;88.70;;;;;;4976953;28;20062;-80
2021/04/10 03:14:48;;;;;;;40.22;32.50;;;7.20;89.10;;;;;;4989599;28;20120;-79
2021/04/10 03:17:18;;;;;;;42.65;30.40;;;7.20;89.40;;;;;;4980234;28;20552;-79
2021/04/10 03:19:44;;;;;;;43.65;32.05;;;7.20;89.50;;;;;;4991477;28;20065;-79
2021/04/10 03:22:10;;;;;;;40.80;30.98;;;7.20;90.00;;;;;;4972393;28;20132;-80
2021/04/10 03:24:35;;;;;;;18.42;13.20;;;7.20;90.00;;;;;;4962423;28;20037;-78
2021/04/10 03:27:01;;;;;;;18.30;13.57;;;7.30;88.50;;;;;;5001460;28;20034;-79
2021/04/10 03:29:26;;;;;;;16.73;13.27;;;7.20;87.00;;;;;;4964240;28;20038;-79
2021/04/10 03:31:52;;;;;;;25.17;16.60;;;7.30;87.00;;;;;;4970463;28;20042;-79
2021/04/10 03:34:17;;;;;;;19.58;16.25;;;7.30;87.00;;;;;;4995078;28;20030;-79
2021/04/10 03:36:43;;;;;;;24.10;17.83;;;7.20;87.10;;;;;;4961195;28;20052;-79
2021/04/10 03:39:09;;;;;;;36.47;26.70;;;7.20;87.90;;;;;;4983024;28;20093;-81
2021/04/10 03:41:35;;;;;;;39.30;27.67;;;7.20;88.50;;;;;;4992318;28;20042;-80
2021/04/10 03:44:00;;;;;;;41.70;29.95;;;7.20;89.40;;;;;;4981458;28;20100;-80
2021/04/10 03:46:26;;;;;;;44.10;32.03;;;7.20;89.80;;;;;;4996968;28;20031;-81
2021/04/10 03:48:52;;;;;;;25.95;19.67;;;7.10;89.70;;;;;;4975601;28;20034;-81
2021/04/10 03:51:17;;;;;;;31.95;23.05;;;7.20;90.10;;;;;;4974542;28;20041;-81
2021/04/10 03:53:43;;;;;;;26.15;18.70;;;7.20;89.30;;;;;;4992203;28;20037;-81
2021/04/10 03:56:09;;;;;;;44.47;32.00;;;7.20;89.50;;;;;;4971675;28;20037;-80
2021/04/10 03:58:35;;;;;;;18.30;15.02;;;7.20;90.00;;;;;;4994681;28;20482;-81
2021/04/10 04:01:00;;;;;;;14.90;11.13;;;7.20;88.90;;;;;;4971582;28;20056;-81
2021/04/10 04:03:26;;;;;;;22.08;15.27;;;7.20;87.50;;;;;;4964000;28;20038;-80
2021/04/10 04:05:51;;;;;;;32.33;26.08;;;7.20;87.50;;;;;;4997579;28;20042;-80
2021/04/10 04:08:17;;;;;;;40.42;28.70;;;7.20;88.00;;;;;;4969836;28;20037;-81
2021/04/10 04:10:42;;;;;;;47.15;31.27;;;7.10;88.90;;;;;;4997334;28;20041;-78
2021/04/10 04:13:08;;;;;;;53.83;35.88;;;7.10;90.00;;;;;;4973351;28;20026;-78
2021/04/10 04:15:33;;;;;;;29.95;23.10;;;7.10;90.40;;;;;;4999606;28;20053;-78
2021/04/10 04:17:59;;;;;;;33.25;22.45;;;7.10;89.40;;;;;;4980984;28;20104;-78
2021/04/10 04:20:24;;;;;;;22.77;19.15;;;7.20;87.80;;;;;;4980802;28;20026;-78
2021/04/10 04:22:51;;;;;;;46.47;33.08;;;7.20;87.60;;;;;;4988713;28;20119;-78
2021/04/10 04:25:16;;;;;;;46.67;35.05;;;7.10;88.50;;;;;;4990537;28;20117;-77
2021/04/10 04:27:42;;;;;;;55.00;38.55;;;7.10;88.80;;;;;;5003060;28;20137;-78
2021/04/10 04:30:08;;;;;;;52.20;36.75;;;7.10;90.00;;;;;;4999072;28;20030;-76
2021/04/10 04:32:34;;;;;;;54.92;37.13;;;7.00;90.50;;;;;;4996081;28;20034;-78
2021/04/10 04:34:59;;;;;;;27.33;20.65;;;7.00;90.60;;;;;;4981752;28;20179;-77
2021/04/10 04:37:25;;;;;;;44.35;33.75;;;7.10;90.20;;;;;;4964693;28;20646;-79
2021/04/10 04:39:50;;;;;;;50.40;36.47;;;7.10;90.20;;;;;;4978570;28;20038;-79
2021/04/10 04:42:16;;;;;;;59.53;39.70;;;7.10;90.40;;;;;;5001302;28;20029;-79
2021/04/10 04:44:42;;;;;;;60.25;39.85;;;7.10;90.90;;;;;;4986805;28;20027;-79
2021/04/10 04:47:08;;;;;;;48.28;32.42;;;7.00;90.80;;;;;;4973277;28;20030;-77
2021/04/10 04:49:33;;;;;;;49.22;35.03;;;7.10;90.80;;;;;;4992316;28;20459;-79
2021/04/10 04:51:59;;;;;;;49.03;33.47;;;7.10;89.70;;;;;;4984799;28;20148;-78
2021/04/10 04:54:24;;;;;;;38.47;27.20;;;7.10;90.00;;;;;;4975028;28;20038;-78
2021/04/10 04:56:50;;;;;;;52.90;36.30;;;7.10;87.80;;;;;;4994343;28;20033;-78
2021/04/10 04:59:16;;;;;;;55.55;38.10;;;7.00;89.60;;;;;;4991235;28;20034;-79
2021/04/10 05:01:41;;;;;;;55.33;37.40;;;7.00;89.00;;;;;;4969951;28;20062;-79
2021/04/10 05:04:07;;;;;;;61.80;41.75;;;7.00;89.30;;;;;;4976726;28;20030;-78
2021/04/10 05:06:32;;;;;;;66.32;45.40;;;7.00;90.00;;;;;;4993152;28;20031;-79
2021/04/10 05:08:58;;;;;;;71.30;45.50;;;6.90;90.50;;;;;;4992570;28;20034;-78
2021/04/10 05:11:24;;;;;;;75.47;44.97;;;6.90;91.00;;;;;;4999612;28;20637;-79
2021/04/10 05:13:53;;;;;;;70.55;45.97;;;6.90;91.50;;;;;;4991270;28;20069;-79
2021/04/10 05:16:18;;;;;;;71.15;47.88;;;7.00;91.40;;;;;;4975196;28;20042;-78
2021/04/10 05:18:44;;;;;;;76.85;47.83;;;7.00;92.00;;;;;;4999619;28;20555;-79
2021/04/10 05:21:09;;;;;;;64.05;45.05;;;7.00;90.70;;;;;;5005351;28;20041;-79
2021/04/10 05:23:36;;;;;;;63.28;44.53;;;7.00;91.20;;;;;;4985441;28;20057;-79
2021/04/10 05:26:02;;;;;;;66.35;45.22;;;7.00;91.30;;;;;;4971001;28;20073;-79
2021/04/10 05:28:28;;;;;;;57.65;40.88;;;7.00;90.90;;;;;;4966157;28;20591;-78
2021/04/10 05:30:53;;;;;;;55.08;38.92;;;7.00;90.80;;;;;;5008941;28;20045;-79
2021/04/10 05:33:20;;;;;;;54.75;39.47;;;7.00;90.90;;;;;;5002475;28;20103;-79
2021/04/10 05:35:45;;;;;;;58.13;38.45;;;7.10;91.70;;;;;;4969502;28;20030;-79
2021/04/10 05:38:11;;;;;;;55.25;35.97;;;7.10;92.10;;;;;;5005442;28;20029;-79
2021/04/10 05:40:36;;;;;;;51.53;35.33;;;7.10;91.10;;;;;;4992281;28;20031;-77
2021/04/10 05:43:02;;;;;;;54.40;35.05;;;7.10;90.90;;;;;;4996606;28;20034;-79
2021/04/10 05:45:27;;;;;;;49.03;34.15;;;7.10;91.40;;;;;;4973736;28;20018;-78
2021/04/10 05:47:53;;;;;;;50.42;34.15;;;7.10;92.30;;;;;;5004567;28;20378;-79
2021/04/10 05:50:18;;;;;;;49.25;33.33;;;7.10;91.40;;;;;;5001423;28;20034;-80
2021/04/10 05:52:44;;;;;;;48.05;32.72;;;7.10;92.10;;;;;;4999582;28;20123;-79
2021/04/10 05:55:10;;;;;;;50.45;35.60;;;7.20;91.00;;;;;;4973792;28;20061;-78
2021/04/10 05:57:35;;;;;;;48.30;33.45;;;7.20;91.50;;;;;;5000915;28;20038;-80
2021/04/10 06:00:01;;;;;;;45.85;34.78;;;7.20;91.40;;;;;;4964046;28;20040;-79
2021/04/10 06:02:26;;;;;;;43.95;31.50;;;7.20;92.10;;;;;;4973985;28;20558;-79
2021/04/10 06:04:52;;;;;;;45.20;31.42;;;7.20;91.80;;;;;;4981123;28;20501;-80
2021/04/10 06:07:18;;;;;;;41.35;31.65;;;7.30;92.20;;;;;;4969747;28;20810;-79
2021/04/10 06:09:43;;;;;;;46.22;33.67;;;7.30;92.40;;;;;;4998787;28;20173;-79
2021/04/10 06:12:09;;;;;;;41.55;30.55;;;7.30;92.00;;;;;;4961403;28;20121;-80
2021/04/10 06:14:35;;;;;;;44.88;30.60;;;7.30;92.10;;;;;;4959865;28;20081;-79
2021/04/10 06:17:00;;;;;;;43.50;32.30;;;7.30;92.10;;;;;;4998507;28;20034;-79
2021/04/10 06:19:26;;;;;;;47.55;32.17;;;7.40;91.70;;;;;;4982583;28;20417;-79
2021/04/10 06:21:52;;;;;;;42.03;31.88;;;7.40;91.80;;;;;;4971001;28;20038;-78
2021/04/10 06:24:18;;;;;;;46.42;31.35;;;7.40;92.20;;;;;;4967751;28;20060;-79
2021/04/10 06:26:44;;;;;;;46.22;32.28;;;7.50;91.80;;;;;;5005641;28;20141;-79
2021/04/10 06:29:09;;;;;;;45.50;33.03;;;7.60;92.40;;;;;;5008330;28;20194;-79
2021/04/10 06:31:35;;;;;;;45.17;32.28;;;7.60;92.30;;;;;;4974326;28;20038;-79
2021/04/10 06:34:01;;;;;;;48.70;32.70;;;7.70;92.20;;;;;;4991140;28;20061;-80
2021/04/10 06:36:26;;;;;;;41.25;30.27;;;7.70;92.40;;;;;;5006697;28;20030;-80
2021/04/10 06:38:53;;;;;;;43.65;32.20;;;7.70;92.40;;;;;;4991917;28;20068;-79
2021/04/10 06:41:18;;;;;;;43.97;32.35;;;7.80;92.10;;;;;;4970482;28;20261;-80
2021/04/10 06:43:44;;;;;;;45.28;32.15;;;7.80;92.60;;;;;;4992444;28;20045;-79
2021/04/10 06:46:10;;;;;;;40.80;30.35;;;7.80;92.90;;;;;;4993350;28;20072;-78
2021/04/10 06:48:40;;;;;;;46.95;32.03;;;7.80;92.50;;;;;;4987911;28;20517;-79
2021/04/10 06:51:06;;;;;;;47.10;32.67;;;7.90;92.50;;;;;;4966677;28;20041;-80
2021/04/10 06:53:41;;;;;;;40.38;30.20;;;7.90;93.50;;;;;;4976544;28;20027;-79
2021/04/10 06:56:07;;;;;;;39.42;28.80;;;8.00;92.60;;;;;;4999036;28;20034;-81
2021/04/10 06:58:37;;;;;;;44.95;31.42;;;8.00;92.30;;;;;;4973795;28;20064;-80
2021/04/10 07:01:02;;;;;;;45.75;31.63;;;8.10;92.50;;;;;;4972620;28;20088;-79
2021/04/10 07:03:28;;;;;;;44.20;33.42;;;8.10;93.10;;;;;;4984009;28;20595;-79
2021/04/10 07:05:53;;;;;;;43.03;31.48;;;8.20;93.60;;;;;;4978501;28;20061;-78
2021/04/10 07:08:22;;;;;;;41.58;30.20;;;8.30;93.40;;;;;;4992672;28;20093;-79
2021/04/10 07:10:51;;;;;;;42.38;30.65;;;8.30;93.40;;;;;;4978411;28;20481;-80
2021/04/10 07:13:17;;;;;;;45.17;31.02;;;8.40;93.70;;;;;;4964828;28;20062;-79
2021/04/10 07:15:43;;;;;;;45.92;30.20;;;8.50;94.00;;;;;;4996529;28;20034;-80
2021/04/10 07:18:08;;;;;;;45.55;31.35;;;8.50;93.80;;;;;;4999866;28;20080;-80
2021/04/10 07:20:36;;;;;;;46.50;32.22;;;8.60;93.60;;;;;;4990215;28;20096;-79
2021/04/10 07:23:11;;;;;;;44.70;30.23;;;8.70;94.00;;;;;;4979148;28;20580;-80
2021/04/10 07:25:39;;;;;;;49.97;30.98;;;8.80;93.90;;;;;;4978333;28;20026;-81
2021/04/10 07:28:25;;;;;;;43.47;30.30;;;8.70;93.60;;;;;;4972357;28;20041;-81
2021/04/10 07:30:54;;;;;;;50.28;31.48;;;8.90;93.60;;;;;;4989968;28;20042;-80
2021/04/10 07:33:23;;;;;;;52.42;33.83;;;8.90;93.40;;;;;;4979604;28;20053;-82
2021/04/10 07:35:48;;;;;;;54.40;33.13;;;9.10;94.10;;;;;;5008990;28;20030;-80
2021/04/10 07:38:32;;;;;;;55.80;34.20;;;9.00;93.60;;;;;;4976816;28;20381;-81
2021/04/10 07:40:59;;;;;;;54.45;35.67;;;9.10;93.70;;;;;;4976036;28;20152;-80
2021/04/10 07:43:30;;;;;;;62.20;37.45;;;9.20;93.50;;;;;;4978512;28;20113;-80
2021/04/10 07:46:18;;;;;;;65.07;35.90;;;9.30;94.00;;;;;;4971824;28;20022;-78
2021/04/10 07:49:05;;;;;;;63.70;35.35;;;9.30;93.40;;;;;;5009812;28;20037;-80
2021/04/10 07:51:33;;;;;;;60.15;36.42;;;9.40;93.40;;;;;;4992753;28;20030;-82
2021/04/10 07:53:59;;;;;;;60.90;34.88;;;9.50;93.60;;;;;;4979660;28;20590;-82
2021/04/10 07:56:25;;;;;;;59.58;34.50;;;9.60;93.60;;;;;;4986737;28;20117;-81
2021/04/10 07:58:50;;;;;;;58.08;34.72;;;9.70;94.30;;;;;;5000985;28;20542;-82
2021/04/10 08:01:16;;;;;;;58.60;33.47;;;9.80;94.20;;;;;;4985261;28;20500;-81
2021/04/10 08:03:43;;;;;;;58.53;33.85;;;9.90;94.20;;;;;;4970780;28;20050;-81
2021/04/10 08:06:08;;;;;;;47.90;31.10;;;10.00;93.00;;;;;;4969958;28;20041;-80
2021/04/10 08:09:04;;;;;;;53.22;34.08;;;10.00;92.80;;;;;;5005757;28;20057;-80
2021/04/10 08:11:39;;;;;;;52.35;33.70;;;10.10;93.30;;;;;;4988991;28;20088;-79
2021/04/10 08:14:12;;;;;;;50.85;33.95;;;10.20;93.90;;;;;;4985000;28;20378;-80
2021/04/10 08:16:38;;;;;;;54.58;33.67;;;10.30;93.70;;;;;;4996712;28;20186;-81
2021/04/10 08:19:04;;;;;;;51.92;32.55;;;10.40;93.20;;;;;;4996543;28;20359;-81
2021/04/10 08:21:29;;;;;;;51.88;33.15;;;10.40;93.10;;;;;;4981349;28;20046;-78
2021/04/10 08:23:56;;;;;;;54.83;34.63;;;10.50;93.00;;;;;;5001056;28;20119;-79
2021/04/10 08:26:22;;;;;;;62.03;36.55;;;10.50;92.80;;;;;;4989730;28;20485;-78
2021/04/10 08:28:47;;;;;;;63.03;38.92;;;10.50;93.50;;;;;;4981827;28;20200;-78
2021/04/10 08:31:13;;;;;;;60.65;37.28;;;10.70;93.40;;;;;;4999778;28;20038;-80
2021/04/10 08:33:39;;;;;;;61.30;38.53;;;10.70;93.60;;;;;;4994214;28;20040;-80
2021/04/10 08:36:06;;;;;;;70.68;40.53;;;10.80;93.70;;;;;;4986573;28;20061;-80
2021/04/10 08:38:33;;;;;;;63.45;39.05;;;10.90;93.50;;;;;;4971034;28;20065;-80
2021/04/10 08:41:05;;;;;;;63.08;37.95;;;11.00;93.20;;;;;;4988043;28;20026;-80
2021/04/10 08:43:35;;;;;;;59.65;35.50;;;11.00;92.90;;;;;;4964412;28;20084;-80
2021/04/10 08:46:02;;;;;;;66.85;40.72;;;11.10;92.90;;;;;;4982067;28;20088;-80
2021/04/10 08:48:28;;;;;;;68.18;42.97;;;11.10;93.00;;;;;;4974320;28;20487;-81
2021/04/10 08:50:55;;;;;;;65.57;39.40;;;11.20;93.50;;;;;;4969973;28;20486;-81
2021/04/10 08:53:31;;;;;;;69.13;41.20;;;11.30;93.70;;;;;;4976196;28;20026;-80
2021/04/10 08:55:57;;;;;;;;;;;11.40;94.10;;;;;;4992853;28;20022;-79
2021/04/10 08:58:29;;;;;;;62.23;36.17;;;11.50;93.30;;;;;;4980373;28;19920;-81
2021/04/10 09:00:56;;;;;;;67.25;38.42;;;11.60;93.10;;;;;;5000249;28;20052;-80
2021/04/10 09:04:00;;;;;;;59.92;37.80;;;11.70;93.30;;;;;;4995746;28;20050;-80
2021/04/10 09:06:28;;;;;;;62.60;41.25;;;11.90;93.70;;;;;;4965136;28;20400;-79
2021/04/10 09:08:54;;;;;;;65.43;38.92;;;12.00;93.60;;;;;;5008493;28;20037;-81
2021/04/10 09:11:20;;;;;;;66.15;38.53;;;12.00;93.70;;;;;;4986595;28;20493;-81
2021/04/10 09:13:50;;;;;;;57.53;37.28;;;12.10;93.40;;;;;;4971036;28;20072;-80
2021/04/10 09:16:23;;;;;;;57.05;36.85;;;12.10;93.30;;;;;;4971969;28;20065;-80
2021/04/10 09:18:56;;;;;;;59.10;36.67;;;12.20;93.30;;;;;;4987740;28;20113;-79
2021/04/10 09:21:25;;;;;;;57.55;39.30;;;12.30;93.20;;;;;;5004279;28;20034;-79
2021/04/10 09:23:51;;;;;;;61.28;35.78;;;12.30;93.40;;;;;;4984516;28;20113;-80
2021/04/10 09:26:18;;;;;;;56.35;37.00;;;12.30;93.00;;;;;;4967148;28;20517;-80
2021/04/10 09:28:56;;;;;;;63.22;38.47;;;12.40;93.20;;;;;;4972112;28;20140;-79
2021/04/10 09:31:38;;;;;;;58.80;35.85;;;12.40;93.10;;;;;;5018041;28;20069;-80
2021/04/10 09:34:03;;;;;;;53.72;36.95;;;12.40;93.10;;;;;;5020029;28;20410;-80
2021/04/10 09:36:45;;;;;;;55.35;36.50;;;12.40;93.10;;;;;;4968364;28;20041;-80
2021/04/10 09:39:11;;;;;;;57.30;35.92;;;12.50;93.00;;;;;;4988784;28;20535;-80
2021/04/10 09:41:48;;;;;;;54.70;35.00;;;12.60;93.00;;;;;;4990349;28;20030;-79
2021/04/10 09:44:14;;;;;;;57.53;35.40;;;12.70;92.90;;;;;;4975870;28;20042;-80
2021/04/10 09:46:39;;;;;;;44.15;27.30;;;12.70;93.20;;;;;;5005232;28;20049;-80
2021/04/10 09:49:05;;;;;;;54.80;35.30;;;12.70;91.40;;;;;;4989615;28;20065;-79
2021/04/10 09:51:38;;;;;;;52.67;35.63;;;12.80;92.70;;;;;;4978120;28;20633;-80
2021/04/10 09:54:04;;;;;;;53.10;33.42;;;13.00;93.40;;;;;;4982381;28;20433;-80
2021/04/10 09:56:30;;;;;;;51.85;33.47;;;13.10;92.80;;;;;;4987621;28;20042;-79
2021/04/10 09:58:56;;;;;;;60.08;36.10;;;13.10;92.70;;;;;;4983248;28;20519;-79
2021/04/10 10:01:27;;;;;;;58.83;36.50;;;13.20;93.10;;;;;;4977089;28;20058;-80
2021/04/10 10:03:52;;;;;;;55.78;35.85;;;13.20;92.90;;;;;;4982267;28;20038;-79
2021/04/10 10:06:23;;;;;;;50.80;35.13;;;13.20;92.90;;;;;;4975514;28;20096;-79
2021/04/10 10:08:48;;;;;;;55.50;33.95;;;13.10;92.70;;;;;;4996559;28;20055;-78
2021/04/10 10:11:14;;;;;;;55.80;36.78;;;13.10;92.80;;;;;;4995360;28;20044;-79
2021/04/10 10:13:40;;;;;;;52.65;35.55;;;13.00;93.20;;;;;;4974472;28;20161;-80
2021/04/10 10:16:06;;;;;;;57.83;36.35;;;12.90;92.70;;;;;;4997588;28;20045;-80
2021/04/10 10:18:50;;;;;;;55.67;35.53;;;12.80;92.40;;;;;;4999970;28;20039;-80
2021/04/10 10:21:17;;;;;;;59.63;38.20;;;12.80;93.20;;;;;;5001337;28;20052;-80
2021/04/10 10:23:47;;;;;;;61.63;34.40;;;12.90;92.90;;;;;;4974661;28;20034;-80
2021/04/10 10:26:14;;;;;;;54.30;34.40;;;12.90;93.70;;;;;;5010114;28;20037;-79
2021/04/10 10:28:43;;;;;;;53.53;35.13;;;12.90;93.60;;;;;;4997035;28;20027;-80
2021/04/10 10:31:17;;;;;;;47.40;33.42;;;12.80;93.40;;;;;;4990651;28;20133;-80
2021/04/10 10:33:42;;;;;;;59.08;34.42;;;12.70;93.40;;;;;;4979901;28;20033;-81
2021/04/10 10:36:08;;;;;;;51.38;32.95;;;12.70;93.10;;;;;;4973242;28;20034;-78
2021/04/10 10:38:35;;;;;;;54.47;33.80;;;12.60;92.90;;;;;;4982319;28;20089;-78
2021/04/10 10:41:02;;;;;;;53.95;34.38;;;12.50;93.30;;;;;;4975819;28;20037;-79
2021/04/10 10:43:27;;;;;;;50.90;32.75;;;12.40;93.20;;;;;;4988574;28;20037;-79
2021/04/10 10:45:55;;;;;;;50.42;32.83;;;12.30;93.40;;;;;;4994580;28;20046;-80
2021/04/10 10:48:42;;;;;;;51.55;33.85;;;12.20;93.40;;;;;;4971832;28;20061;-80
2021/04/10 10:51:09;;;;;;;54.65;33.80;;;12.20;93.30;;;;;;4989406;28;20688;-79
2021/04/10 10:53:55;;;;;;;64.10;37.75;;;12.10;93.10;;;;;;4976268;28;20033;-78
2021/04/10 10:56:30;;;;;;;54.35;35.72;;;12.10;93.10;;;;;;4993801;28;20377;-79
2021/04/10 10:59:00;;;;;;;52.95;35.08;;;12.00;92.90;;;;;;4974169;28;20034;-78
2021/04/10 11:01:36;;;;;;;55.63;35.95;;;12.00;92.80;;;;;;4293826;28;10000305;-79
2021/04/10 11:04:03;;;;;;;63.05;35.65;;;11.80;93.40;;;;;;4972902;28;20160;-78
2021/04/10 11:06:32;;;;;;;53.50;37.63;;;11.80;93.40;;;;;;5003300;28;20425;-78
2021/04/10 11:09:02;;;;;;;61.05;35.30;;;11.60;93.60;;;;;;5020508;28;20493;-79
2021/04/10 11:11:31;;;;;;;60.85;36.38;;;11.50;93.60;;;;;;4986342;28;20042;-78
2021/04/10 11:13:56;;;;;;;58.35;37.20;;;11.40;93.60;;;;;;4970767;28;20037;-78
2021/04/10 11:16:22;;;;;;;60.22;37.92;;;11.40;93.80;;;;;;4979062;28;20397;-79
2021/04/10 11:18:55;;;;;;;56.22;37.13;;;11.40;94.10;;;;;;5001966;28;20133;-78
2021/04/10 11:21:23;;;;;;;58.35;38.63;;;11.40;94.30;;;;;;4963923;28;20110;-79
2021/04/10 11:24:05;;;;;;;59.45;37.03;;;11.40;94.40;;;;;;5003837;28;20042;-78
2021/04/10 11:26:45;;;;;;;59.30;36.60;;;11.40;94.60;;;;;;4993659;28;20045;-78
2021/04/10 11:29:16;;;;;;;59.22;38.88;;;11.40;94.70;;;;;;5000600;28;20041;-78
2021/04/10 11:31:43;;;;;;;59.65;36.65;;;11.40;95.00;;;;;;4992077;28;20069;-79
2021/04/10 11:34:31;;;;;;;61.75;36.55;;;11.30;94.90;;;;;;4972370;28;20053;-79
2021/04/10 11:36:58;;;;;;;59.95;37.33;;;11.20;94.40;;;;;;4996780;28;20069;-78
2021/04/10 11:39:24;;;;;;;57.97;36.08;;;11.20;94.50;;;;;;4975198;28;20042;-79
2021/04/10 11:41:49;;;;;;;56.50;35.38;;;11.10;94.60;;;;;;4977061;28;20397;-79
2021/04/10 11:44:15;;;;;;;60.15;37.85;;;11.00;94.20;;;;;;4986523;28;20037;-79
2021/04/10 11:46:41;;;;;;;59.00;37.72;;;10.90;94.40;;;;;;5011286;28;20389;-80
2021/04/10 11:49:07;;;;;;;58.10;37.47;;;10.80;94.30;;;;;;4987870;28;20149;-80
2021/04/10 11:51:32;;;;;;;61.75;37.25;;;10.80;94.40;;;;;;4973741;28;20062;-80
2021/04/10 11:53:58;;;;;;;59.33;38.50;;;10.80;94.50;;;;;;4634989;28;10000045;-80
2021/04/10 11:56:25;;;;;;;60.47;38.15;;;10.80;94.50;;;;;;4990689;28;20029;-79
2021/04/10 11:59:01;;;;;;;69.13;42.58;;;10.70;94.80;;;;;;5007729;28;20045;-80
2021/04/10 12:01:28;;;;;;;68.35;40.35;;;10.70;94.90;;;;;;4984317;28;20041;-79
2021/04/10 12:03:55;;;;;;;62.78;39.67;;;10.70;94.70;;;;;;4990748;28;20026;-79
2021/04/10 12:06:39;;;;;;;71.38;42.17;;;10.70;95.00;;;;;;4989534;28;20070;-80
2021/04/10 12:09:11;;;;;;;66.63;40.50;;;10.70;95.00;;;;;;4996584;28;20033;-80
2021/04/10 12:11:42;;;;;;;68.00;41.20;;;10.70;95.30;;;;;;4979498;28;20038;-79
2021/04/10 12:14:08;;;;;;;73.20;43.15;;;10.80;95.40;;;;;;4991836;28;20062;-80
2021/04/10 12:16:35;;;;;;;70.22;44.33;;;10.90;95.60;;;;;;4996374;28;20054;-80
2021/04/10 12:19:00;;;;;;;66.43;40.75;;;11.10;96.30;;;;;;4998423;28;20036;-80
2021/04/10 12:21:26;;;;;;;64.47;39.78;;;11.20;95.80;;;;;;4969408;28;20033;-80
2021/04/10 12:23:51;;;;;;;64.22;38.58;;;11.30;96.20;;;;;;4984092;28;20044;-82
2021/04/10 12:26:17;;;;;;;57.85;37.70;;;11.30;95.90;;;;;;4976806;28;20486;-81
2021/04/10 12:28:43;;;;;;;61.42;37.70;;;11.30;95.90;;;;;;4964738;28;20538;-80
2021/04/10 12:31:11;;;;;;;68.45;44.70;;;11.30;95.90;;;;;;4975956;28;20034;-80
2021/04/10 12:33:40;;;;;;;62.22;40.88;;;11.20;96.20;;;;;;4972009;28;20077;-80
2021/04/10 12:36:06;;;;;;;62.17;39.10;;;11.20;96.10;;;;;;4992774;28;20959;-80
2021/04/10 12:38:32;;;;;;;62.13;36.83;;;11.10;95.70;;;;;;4963984;28;20025;-79